Lower Lake, CA (95457)

12:15 AM PST on December 08, 2016 (GMT -0800)
Deerscape at Rancho Sendero | | Change Station

Elev 1404 ft 38.88 °N, 122.60 °W | Updated 28 seconds ago

Rain
Rain
35.8 °F
Feels Like 36 °F
N
0.0
Wind Variable Wind from ESE
Gusts 0.0 mph

Today
High -- | Low -- °F
--% Chance of Precip.
Yesterday
High -- | Low -- °F
Precip. -- in
Pressure 30.06 in
Visibility 2.5 miles
Clouds Overcast 1600 ft
Windchill 36 °F
Dew Point 35 °F
Humidity 97%
Rainfall 0.18 in
Snow Depth Not available.
7:17 AM 4:48 PM
First Quarter, 61% visible
METAR KSTS 080753Z AUTO 07004KT 2 1/2SM RA BR OVC016 06/05 A3007 RMK AO2 SLP178 P0007 T00560050 401001011
Pressure 30.06 in
Visibility 2.5 miles
Clouds Overcast 1600 ft
Windchill 36 °F
Dew Point 35 °F
Humidity 97%
Rainfall 0.18 in
Snow Depth Not available.
7:17 AM 4:48 PM
First Quarter, 61% visible
METAR KSTS 080753Z AUTO 07004KT 2 1/2SM RA BR OVC016 06/05 A3007 RMK AO2 SLP178 P0007 T00560050 401001011

10-Day Weather Forecast

Almanac

Astronomy

Dec. 08, 2016 Rise Set
Actual Time
Civil Twilight
Nautical Twilight
Astronomical Twilight
Moon
Length of Visible Light
Length of Day
Tomorrow will be .
, % of the Moon is Illuminated

Today's Extremes

State Highs State Lows

Community

WunderPhotos

Upload Photos

1,956,259 photos uploaded!

WunderBlog® & News

Nearby

Air Quality

  Air Quality AQ Index Pollutant
Not available.

Snow Depth

Station Depth Elevation

Earthquake Activity

City Distance Mag. Time & Date
Minimum magnitude displayed is 2.5.

Coastal Water Temperatures

Place Temperature

Stations

Nearby Weather Stations

Station Location Temp. Windchill Dew Point Humidity Wind Precip. Elev Updated Type
                   

Watches & Warnings

There are currently no watches in effect.